Time;durP1;ratioP1;P1;durP2;ratioP2;P2;SDS_P1;SDS_P2;PMS_P1;PMS_P2;Temp;Humidity;BMP_temperature;BMP_pressure;BME280_temperature;BME280_humidity;BME280_pressure;Samples;Min_cycle;Max_cycle;Signal;HPM_P1;HPM_P2
2020/12/23 00:01:02;;;;;;;114.85;9.48;;;6.50;94.20;;;;;;4982270;28;20050;-76
2020/12/23 00:03:28;;;;;;;37.92;8.32;;;6.40;94.10;;;;;;4953750;28;614274;-79
2020/12/23 00:05:54;;;;;;;70.75;9.30;;;6.40;94.20;;;;;;4990921;28;20164;-79
2020/12/23 00:08:19;;;;;;;10.27;7.38;;;6.50;94.20;;;;;;4975034;28;20539;-79
2020/12/23 00:10:45;;;;;;;9.13;7.00;;;6.50;94.20;;;;;;4976186;28;20114;-78
2020/12/23 00:13:11;;;;;;;9.57;7.55;;;6.50;94.20;;;;;;4991088;28;20070;-79
2020/12/23 00:15:37;;;;;;;10.68;7.78;;;6.50;94.10;;;;;;4990614;28;20093;-79
2020/12/23 00:18:05;;;;;;;8.82;7.20;;;6.50;94.10;;;;;;4984844;28;20043;-79
2020/12/23 00:20:30;;;;;;;9.13;7.72;;;7.60;94.30;;;;;;4969076;28;20074;-79
2020/12/23 00:22:56;;;;;;;9.32;7.63;;;6.50;94.20;;;;;;4976128;28;20035;-79
2020/12/23 00:25:22;;;;;;;10.88;7.32;;;6.50;94.20;;;;;;4958902;28;20113;-79
2020/12/23 00:27:48;;;;;;;10.68;7.57;;;6.50;94.40;;;;;;4974786;28;20051;-78
2020/12/23 00:30:14;;;;;;;9.05;7.22;;;6.50;94.20;;;;;;4990756;28;20043;-77
2020/12/23 00:32:40;;;;;;;12.18;8.10;;;6.50;94.10;;;;;;4974397;28;20041;-77
2020/12/23 00:35:06;;;;;;;10.10;8.18;;;6.60;94.30;;;;;;4973899;28;20487;-77
2020/12/23 00:37:31;;;;;;;10.57;7.57;;;6.60;94.30;;;;;;4990501;28;20035;-77
2020/12/23 00:39:57;;;;;;;14.02;8.32;;;6.60;94.30;;;;;;4990637;28;20054;-77
2020/12/23 00:42:23;;;;;;;11.70;7.78;;;6.90;94.60;;;;;;4975612;28;20031;-78
2020/12/23 00:44:49;;;;;;;11.55;7.85;;;6.60;94.40;;;;;;4990641;28;20035;-78
2020/12/23 00:47:15;;;;;;;10.80;8.40;;;6.60;94.40;;;;;;4987071;28;20404;-78
2020/12/23 00:49:43;;;;;;;11.13;7.72;;;6.70;94.30;;;;;;4971499;28;20047;-76
2020/12/23 00:52:09;;;;;;;10.25;8.13;;;7.50;94.80;;;;;;4972688;28;20042;-76
2020/12/23 00:54:35;;;;;;;10.63;8.20;;;6.70;94.30;;;;;;4989264;28;20451;-75
2020/12/23 00:57:01;;;;;;;12.48;8.60;;;7.80;94.60;;;;;;4975149;28;20070;-76
2020/12/23 00:59:39;;;;;;;8.70;7.80;;;6.70;94.30;;;;;;4987402;28;20042;-76
2020/12/23 01:02:07;;;;;;;8.95;7.60;;;6.70;94.40;;;;;;4974206;28;20082;-76
2020/12/23 01:04:38;;;;;;;9.18;7.88;;;7.30;94.70;;;;;;4973936;28;20043;-76
2020/12/23 01:07:04;;;;;;;11.00;8.30;;;6.80;94.40;;;;;;4974116;28;20047;-77
2020/12/23 01:09:30;;;;;;;10.10;8.20;;;7.10;94.50;;;;;;4984622;28;20376;-77
2020/12/23 01:11:56;;;;;;;9.20;7.70;;;6.80;94.50;;;;;;4960288;28;20039;-77
2020/12/23 01:14:21;;;;;;;10.90;8.30;;;7.90;94.80;;;;;;4999199;28;20101;-77
2020/12/23 01:16:47;;;;;;;10.18;8.52;;;6.70;94.30;;;;;;4978042;28;20034;-77
2020/12/23 01:19:14;;;;;;;10.98;8.15;;;6.90;94.40;;;;;;4974624;28;20030;-76
2020/12/23 01:21:42;;;;;;;9.00;7.90;;;7.20;94.60;;;;;;4973593;28;20399;-76
2020/12/23 01:24:08;;;;;;;11.40;8.73;;;6.90;94.60;;;;;;4971996;28;20038;-76
2020/12/23 01:26:37;;;;;;;9.82;8.70;;;7.00;94.80;;;;;;4974849;28;20479;-76
2020/12/23 01:29:02;;;;;;;9.77;8.25;;;8.10;94.80;;;;;;4974066;28;20144;-75
2020/12/23 01:31:28;;;;;;;10.23;8.65;;;7.00;94.50;;;;;;4972329;28;20432;-76
2020/12/23 01:33:54;;;;;;;12.50;9.57;;;7.20;94.40;;;;;;4965990;28;20039;-76
2020/12/23 01:36:20;;;;;;;10.93;9.32;;;7.00;94.40;;;;;;4989399;28;20043;-76
2020/12/23 01:38:46;;;;;;;12.68;9.07;;;7.00;94.40;;;;;;4973267;28;20043;-76
2020/12/23 01:41:12;;;;;;;12.05;9.85;;;7.00;94.50;;;;;;4974853;28;20034;-77
2020/12/23 01:43:38;;;;;;;12.18;9.68;;;7.40;94.60;;;;;;4984452;28;20042;-77
2020/12/23 01:46:04;;;;;;;15.90;10.30;;;7.00;94.50;;;;;;4989066;28;20053;-77
2020/12/23 01:48:32;;;;;;;12.38;9.95;;;7.00;94.50;;;;;;4989241;28;20038;-77
2020/12/23 01:51:01;;;;;;;12.98;10.10;;;6.90;94.70;;;;;;4963499;28;20055;-76
2020/12/23 01:53:30;;;;;;;14.43;11.48;;;7.00;94.80;;;;;;4956705;28;20030;-76
2020/12/23 01:56:00;;;;;;;16.77;11.75;;;7.00;95.00;;;;;;4961849;28;20098;-76
2020/12/23 01:58:34;;;;;;;15.57;11.05;;;7.00;94.80;;;;;;4973118;28;20034;-76
2020/12/23 02:01:01;;;;;;;17.67;12.18;;;7.10;94.90;;;;;;4989202;28;20046;-77
2020/12/23 02:03:28;;;;;;;17.48;12.15;;;7.10;94.80;;;;;;4988818;28;20049;-77
2020/12/23 02:05:56;;;;;;;18.80;12.75;;;7.10;94.90;;;;;;4988969;28;20082;-77
2020/12/23 02:08:25;;;;;;;16.98;12.68;;;7.10;94.80;;;;;;4988467;28;20041;-77
2020/12/23 02:10:54;;;;;;;19.58;13.05;;;7.10;94.90;;;;;;4974093;28;20047;-76
2020/12/23 02:13:55;;;;;;;22.63;13.98;;;7.30;95.00;;;;;;4979458;28;20042;-75
2020/12/23 02:16:21;;;;;;;19.25;13.82;;;7.20;95.00;;;;;;4932057;29;20412;-76
2020/12/23 02:18:53;;;;;;;22.25;13.40;;;7.70;95.20;;;;;;4966162;28;20117;-75
2020/12/23 02:21:19;;;;;;;23.80;14.30;;;7.20;95.00;;;;;;4973991;28;20110;-75
2020/12/23 02:23:45;;;;;;;23.10;13.77;;;7.20;95.30;;;;;;4989063;28;20039;-76
2020/12/23 02:26:10;;;;;;;25.70;13.93;;;7.20;95.10;;;;;;4988801;28;20047;-76
2020/12/23 02:28:41;;;;;;;23.58;13.73;;;7.20;95.00;;;;;;4972992;28;20039;-76
2020/12/23 02:31:10;;;;;;;23.25;12.98;;;7.20;95.00;;;;;;4970300;28;20053;-76
2020/12/23 02:33:35;;;;;;;24.13;14.00;;;7.20;94.90;;;;;;4988857;28;20039;-77
2020/12/23 02:36:01;;;;;;;22.10;13.75;;;8.10;95.10;;;;;;4966640;28;20115;-77
2020/12/23 02:38:27;;;;;;;21.25;13.15;;;7.20;94.90;;;;;;4973653;28;20061;-77
2020/12/23 02:40:53;;;;;;;19.77;13.68;;;7.10;94.70;;;;;;4988763;28;20070;-77
2020/12/23 02:43:21;;;;;;;26.15;13.93;;;7.00;94.60;;;;;;4972604;28;20047;-78
2020/12/23 02:45:47;;;;;;;20.80;12.90;;;6.90;94.70;;;;;;4972920;28;20058;-77
2020/12/23 02:48:13;;;;;;;18.40;13.23;;;7.90;94.90;;;;;;4972249;28;20055;-76
2020/12/23 02:50:38;;;;;;;18.65;14.40;;;6.80;94.80;;;;;;4973608;28;20054;-77
2020/12/23 02:53:04;;;;;;;22.67;13.80;;;6.80;94.60;;;;;;4973517;28;20105;-77
2020/12/23 02:55:30;;;;;;;23.05;14.68;;;6.70;94.70;;;;;;4973705;28;20039;-77
2020/12/23 02:57:56;;;;;;;25.20;15.15;;;6.70;94.70;;;;;;4988499;28;20375;-77
2020/12/23 03:00:22;;;;;;;24.35;14.43;;;6.70;94.70;;;;;;4973517;28;20042;-77
2020/12/23 03:02:47;;;;;;;28.27;14.75;;;7.60;94.90;;;;;;4987856;28;20406;-76
2020/12/23 03:05:13;;;;;;;24.95;15.25;;;6.60;94.70;;;;;;4968901;28;20053;-77
2020/12/23 03:07:39;;;;;;;20.73;13.82;;;6.60;94.80;;;;;;4988493;28;20106;-77
2020/12/23 03:10:05;;;;;;;23.05;14.10;;;6.60;94.90;;;;;;4988187;28;20039;-77
2020/12/23 03:12:31;;;;;;;21.08;14.05;;;6.60;95.00;;;;;;4988418;28;20046;-77
2020/12/23 03:14:56;;;;;;;21.70;14.55;;;6.70;95.30;;;;;;4973323;28;20498;-77
2020/12/23 03:17:22;;;;;;;31.20;14.68;;;7.40;95.20;;;;;;4988275;28;20031;-77
2020/12/23 03:19:48;;;;;;;31.17;14.05;;;6.70;95.10;;;;;;4965893;28;20097;-77
2020/12/23 03:22:14;;;;;;;26.75;13.70;;;7.00;95.20;;;;;;4987941;28;20495;-77
2020/12/23 03:24:39;;;;;;;24.10;13.07;;;6.70;95.20;;;;;;4973466;28;20031;-77
2020/12/23 03:27:06;;;;;;;21.80;12.98;;;6.90;95.30;;;;;;4972267;28;20045;-77
2020/12/23 03:29:31;;;;;;;30.67;13.38;;;6.70;95.40;;;;;;4966622;28;20443;-77
2020/12/23 03:31:57;;;;;;;33.40;14.20;;;6.80;95.40;;;;;;4975830;28;20061;-77
2020/12/23 03:34:23;;;;;;;24.27;13.65;;;6.80;95.50;;;;;;4974958;28;20065;-78
2020/12/23 03:36:49;;;;;;;27.77;15.15;;;6.80;95.50;;;;;;4991848;28;20038;-78
2020/12/23 03:39:17;;;;;;;30.80;15.50;;;6.80;95.50;;;;;;4991432;28;20039;-78
2020/12/23 03:41:42;;;;;;;28.75;16.15;;;6.80;95.70;;;;;;4990096;28;20059;-77
2020/12/23 03:44:08;;;;;;;27.38;15.75;;;6.80;95.80;;;;;;4952156;28;20553;-77
2020/12/23 03:46:34;;;;;;;41.72;15.43;;;6.80;95.50;;;;;;4975166;28;20039;-77
2020/12/23 03:49:00;;;;;;;46.67;15.98;;;6.90;95.50;;;;;;4976509;28;20502;-78
2020/12/23 03:51:25;;;;;;;34.88;15.15;;;6.80;95.50;;;;;;4987274;28;20086;-78
2020/12/23 03:53:51;;;;;;;67.57;15.98;;;6.80;95.40;;;;;;4974079;28;20039;-78
2020/12/23 03:56:17;;;;;;;28.50;16.00;;;6.80;95.50;;;;;;4991436;28;20491;-78
2020/12/23 03:58:42;;;;;;;26.52;15.63;;;6.80;95.50;;;;;;4991189;28;20557;-78
2020/12/23 04:01:08;;;;;;;24.15;16.17;;;6.80;95.40;;;;;;4991066;28;20035;-78
2020/12/23 04:03:34;;;;;;;24.10;15.80;;;6.80;95.60;;;;;;4991297;28;20110;-78
2020/12/23 04:06:02;;;;;;;21.77;15.20;;;6.80;95.60;;;;;;4991052;28;20065;-77
2020/12/23 04:08:28;;;;;;;21.70;15.27;;;6.80;95.50;;;;;;4990762;28;20039;-78
2020/12/23 04:10:54;;;;;;;22.67;14.93;;;6.80;95.60;;;;;;4975041;28;20057;-78
2020/12/23 04:13:20;;;;;;;20.77;14.60;;;7.60;95.80;;;;;;4991078;28;20039;-78
2020/12/23 04:15:46;;;;;;;20.67;14.52;;;6.90;95.70;;;;;;4974854;28;20031;-78
2020/12/23 04:18:11;;;;;;;22.65;14.27;;;6.90;95.60;;;;;;4978281;28;20045;-79
2020/12/23 04:20:37;;;;;;;21.23;14.27;;;6.90;95.50;;;;;;4986020;28;20075;-78
2020/12/23 04:23:03;;;;;;;20.58;14.73;;;6.90;95.50;;;;;;4976193;28;20035;-78
2020/12/23 04:25:29;;;;;;;22.17;14.23;;;6.90;95.50;;;;;;4966053;28;20151;-78
2020/12/23 04:27:55;;;;;;;19.90;15.25;;;7.00;95.70;;;;;;4990775;28;20042;-78
2020/12/23 04:30:20;;;;;;;20.65;14.93;;;7.00;95.40;;;;;;4975546;28;20129;-78
2020/12/23 04:32:46;;;;;;;20.88;15.10;;;7.00;95.50;;;;;;4975781;28;20122;-78
2020/12/23 04:35:12;;;;;;;24.25;15.70;;;7.10;95.60;;;;;;4990624;28;20059;-78
2020/12/23 04:37:40;;;;;;;22.98;15.48;;;7.00;95.60;;;;;;4975103;28;20105;-78
2020/12/23 04:40:06;;;;;;;22.55;15.52;;;6.90;95.70;;;;;;4974113;28;20038;-78
2020/12/23 04:42:33;;;;;;;23.65;16.08;;;7.00;95.60;;;;;;4974545;28;20403;-79
2020/12/23 04:45:03;;;;;;;22.00;14.93;;;7.20;95.70;;;;;;4986804;28;20039;-79
2020/12/23 04:47:31;;;;;;;23.25;15.90;;;7.00;95.80;;;;;;4991268;28;20042;-79
2020/12/23 04:49:58;;;;;;;24.58;15.80;;;7.00;95.60;;;;;;4975382;28;20053;-75
2020/12/23 04:52:33;;;;;;;24.92;16.75;;;7.00;95.70;;;;;;4975472;28;20114;-75
2020/12/23 04:55:02;;;;;;;26.33;15.88;;;7.00;95.60;;;;;;4981534;28;20039;-76
2020/12/23 04:57:28;;;;;;;24.67;15.88;;;7.00;95.60;;;;;;4975182;28;20177;-76
2020/12/23 04:59:55;;;;;;;25.48;15.63;;;7.10;95.70;;;;;;4975241;28;20054;-76
2020/12/23 05:02:20;;;;;;;23.58;15.60;;;7.00;95.70;;;;;;4988557;28;20066;-77
2020/12/23 05:04:46;;;;;;;21.80;15.85;;;7.00;95.70;;;;;;4990037;28;20078;-77
2020/12/23 05:07:17;;;;;;;24.77;15.23;;;7.10;95.70;;;;;;4975080;28;20399;-77
2020/12/23 05:09:46;;;;;;;19.80;14.73;;;7.10;95.70;;;;;;4974257;28;20434;-77
2020/12/23 05:12:12;;;;;;;24.70;15.80;;;7.10;95.80;;;;;;4989873;28;20039;-77
2020/12/23 05:14:38;;;;;;;23.83;15.80;;;7.20;95.70;;;;;;4963850;28;20117;-77
2020/12/23 05:17:05;;;;;;;22.85;16.15;;;7.10;95.70;;;;;;4974845;28;20038;-77
2020/12/23 05:19:30;;;;;;;23.88;16.92;;;7.10;95.60;;;;;;4989824;28;20042;-77
2020/12/23 05:21:58;;;;;;;25.48;16.52;;;7.10;95.60;;;;;;4989767;28;20558;-78
2020/12/23 05:24:25;;;;;;;25.90;17.67;;;7.10;95.70;;;;;;4964746;28;20055;-78
2020/12/23 05:26:57;;;;;;;30.83;18.38;;;7.20;95.80;;;;;;4961588;28;20046;-78
2020/12/23 05:29:23;;;;;;;30.70;16.95;;;7.20;95.70;;;;;;4974578;28;20073;-78
2020/12/23 05:31:50;;;;;;;32.55;18.48;;;7.10;95.70;;;;;;4974473;28;20467;-78
2020/12/23 05:34:15;;;;;;;32.50;19.65;;;7.30;95.80;;;;;;4989671;28;20034;-78
2020/12/23 05:36:41;;;;;;;34.33;19.17;;;7.20;95.70;;;;;;4974428;28;20050;-78
2020/12/23 05:39:08;;;;;;;43.22;21.55;;;7.20;95.70;;;;;;4974150;28;20046;-78
2020/12/23 05:41:36;;;;;;;46.78;22.05;;;7.20;95.60;;;;;;4974310;28;20403;-75
2020/12/23 05:44:12;;;;;;;51.10;22.92;;;7.10;95.60;;;;;;4974367;28;20042;-76
2020/12/23 05:46:39;;;;;;;42.05;22.13;;;7.20;95.70;;;;;;4966393;28;20039;-76
2020/12/23 05:49:04;;;;;;;44.45;21.25;;;7.10;95.70;;;;;;4974200;28;20042;-76
2020/12/23 05:51:36;;;;;;;53.13;21.48;;;7.20;95.70;;;;;;4972865;28;20047;-77
2020/12/23 05:54:04;;;;;;;46.65;21.52;;;7.70;95.90;;;;;;4987087;28;20102;-77
2020/12/23 05:56:36;;;;;;;49.30;20.83;;;7.20;95.80;;;;;;4974072;28;20411;-77
2020/12/23 05:59:01;;;;;;;43.97;20.30;;;8.40;96.10;;;;;;4973981;28;20038;-77
2020/12/23 06:01:33;;;;;;;37.28;19.60;;;7.70;95.90;;;;;;4972695;28;20106;-77
2020/12/23 06:04:22;;;;;;;38.38;19.13;;;7.70;95.90;;;;;;4986505;28;20057;-77
2020/12/23 06:06:52;;;;;;;32.53;17.83;;;7.20;95.80;;;;;;4963320;28;20145;-77
2020/12/23 06:09:26;;;;;;;31.75;17.88;;;7.20;95.80;;;;;;4988620;28;20053;-76
2020/12/23 06:11:55;;;;;;;30.00;18.30;;;7.20;95.80;;;;;;4973922;28;20039;-76
2020/12/23 06:14:23;;;;;;;32.90;18.88;;;7.30;95.90;;;;;;4973658;28;20066;-76
2020/12/23 06:16:58;;;;;;;35.92;18.15;;;7.20;95.80;;;;;;4973957;28;20049;-76
2020/12/23 06:19:29;;;;;;;27.92;16.92;;;7.30;95.90;;;;;;4972546;28;20057;-76
2020/12/23 06:21:59;;;;;;;27.73;16.33;;;7.30;96.00;;;;;;4974060;28;20035;-76
2020/12/23 06:24:26;;;;;;;27.70;16.65;;;7.30;96.00;;;;;;4961642;28;20306;-76
2020/12/23 06:26:57;;;;;;;28.02;16.42;;;7.30;96.00;;;;;;4972089;28;20045;-76
2020/12/23 06:29:28;;;;;;;28.77;17.23;;;7.30;96.00;;;;;;4988614;28;20062;-76
2020/12/23 06:31:59;;;;;;;28.77;16.98;;;7.60;96.20;;;;;;4972372;28;20046;-76
2020/12/23 06:34:30;;;;;;;31.38;17.23;;;7.30;96.00;;;;;;4988655;28;20034;-77
2020/12/23 06:36:57;;;;;;;32.13;17.17;;;7.30;96.10;;;;;;4988436;28;20043;-76
2020/12/23 06:39:39;;;;;;;30.77;17.80;;;7.40;96.10;;;;;;4973615;28;20047;-76
2020/12/23 06:42:05;;;;;;;29.58;17.42;;;7.20;96.10;;;;;;4973594;28;20066;-76
2020/12/23 06:44:42;;;;;;;35.83;17.55;;;7.20;96.10;;;;;;4968104;28;20063;-76
2020/12/23 06:47:09;;;;;;;29.90;17.02;;;7.30;96.20;;;;;;4973276;28;20031;-76
2020/12/23 06:49:49;;;;;;;30.27;16.48;;;7.30;96.20;;;;;;4973414;28;20047;-76
2020/12/23 06:52:27;;;;;;;30.35;16.88;;;7.30;96.20;;;;;;4972579;28;20031;-76
2020/12/23 06:55:05;;;;;;;28.98;17.70;;;7.30;96.20;;;;;;4968162;28;20120;-77
2020/12/23 06:57:37;;;;;;;31.58;16.98;;;7.40;96.10;;;;;;4967748;28;20031;-76
2020/12/23 07:00:17;;;;;;;27.00;17.83;;;7.30;96.10;;;;;;4974060;28;20376;-77
2020/12/23 07:03:00;;;;;;;27.48;18.00;;;7.30;96.10;;;;;;4974001;28;20031;-77
2020/12/23 07:05:33;;;;;;;26.52;17.67;;;7.30;96.00;;;;;;4973763;28;20110;-76
2020/12/23 07:08:03;;;;;;;28.20;18.05;;;7.20;96.10;;;;;;4977640;28;20031;-76
2020/12/23 07:10:39;;;;;;;33.58;18.50;;;7.30;96.10;;;;;;4991602;28;20047;-76
2020/12/23 07:13:13;;;;;;;36.20;19.83;;;7.20;96.20;;;;;;4975572;28;20047;-78
2020/12/23 07:15:51;;;;;;;30.23;17.67;;;7.60;96.40;;;;;;4976815;28;20070;-77
2020/12/23 07:18:22;;;;;;;31.38;18.92;;;7.20;96.30;;;;;;4976819;28;20115;-77
2020/12/23 07:20:50;;;;;;;33.25;18.58;;;7.20;96.30;;;;;;4992132;28;20101;-76
2020/12/23 07:23:21;;;;;;;30.25;17.65;;;7.30;96.40;;;;;;4991856;28;20035;-77
2020/12/23 07:25:49;;;;;;;29.00;18.63;;;7.80;96.80;;;;;;4976853;28;20094;-77
2020/12/23 07:28:26;;;;;;;32.75;18.23;;;7.40;96.40;;;;;;4976810;28;20034;-77
2020/12/23 07:30:52;;;;;;;41.70;18.85;;;7.40;96.30;;;;;;4976753;28;20035;-77
2020/12/23 07:33:20;;;;;;;33.45;19.55;;;7.40;96.30;;;;;;4972899;28;20693;-77
2020/12/23 07:35:54;;;;;;;30.85;18.30;;;7.40;96.40;;;;;;4970531;28;20114;-79
2020/12/23 07:38:21;;;;;;;35.60;19.27;;;7.40;96.40;;;;;;4971495;28;20038;-78
2020/12/23 07:40:47;;;;;;;35.47;19.70;;;7.40;96.30;;;;;;4974362;28;20422;-78
2020/12/23 07:43:15;;;;;;;43.50;22.17;;;7.60;96.40;;;;;;4976533;28;20070;-77
2020/12/23 07:45:42;;;;;;;42.08;20.67;;;7.50;96.40;;;;;;4989084;28;20051;-78
2020/12/23 07:48:10;;;;;;;40.75;20.65;;;7.50;96.40;;;;;;4961750;28;20114;-79
2020/12/23 07:50:47;;;;;;;35.30;20.73;;;7.40;96.40;;;;;;4970737;28;20131;-78
2020/12/23 07:53:13;;;;;;;38.45;21.58;;;7.50;96.40;;;;;;4968926;28;20051;-78
2020/12/23 07:55:47;;;;;;;41.33;21.67;;;7.40;96.40;;;;;;4974691;28;20038;-80
2020/12/23 07:58:13;;;;;;;44.80;22.40;;;7.40;96.40;;;;;;4963665;28;20117;-79
2020/12/23 08:00:43;;;;;;;41.08;22.27;;;7.50;96.50;;;;;;4964746;28;20034;-80
2020/12/23 08:03:10;;;;;;;39.83;21.38;;;7.80;96.80;;;;;;4978752;28;20119;-78
2020/12/23 08:05:36;;;;;;;38.33;22.23;;;7.20;96.40;;;;;;4966865;28;20047;-77
2020/12/23 08:08:02;;;;;;;42.42;21.27;;;7.50;96.50;;;;;;4974951;28;20042;-78
2020/12/23 08:10:29;;;;;;;39.95;21.67;;;7.40;96.50;;;;;;4970597;28;20039;-79
2020/12/23 08:13:03;;;;;;;37.33;20.88;;;7.40;96.50;;;;;;4991073;28;20050;-80
2020/12/23 08:15:29;;;;;;;38.55;21.75;;;7.50;96.60;;;;;;4973660;28;20043;-77
2020/12/23 08:18:03;;;;;;;39.30;21.65;;;7.50;96.60;;;;;;4970360;28;20062;-77
2020/12/23 08:20:29;;;;;;;46.45;23.05;;;7.50;96.60;;;;;;4971750;28;20094;-79
2020/12/23 08:22:57;;;;;;;39.10;21.20;;;7.50;96.60;;;;;;4975812;28;20066;-79
2020/12/23 08:25:24;;;;;;;40.10;21.73;;;7.50;96.60;;;;;;4975894;28;20034;-79
2020/12/23 08:27:52;;;;;;;38.53;20.92;;;7.50;96.60;;;;;;4975750;28;20038;-79
2020/12/23 08:30:19;;;;;;;38.60;20.67;;;7.50;96.60;;;;;;4975825;28;20032;-79
2020/12/23 08:32:56;;;;;;;37.00;20.60;;;7.50;96.60;;;;;;4975893;28;20039;-78
2020/12/23 08:35:27;;;;;;;35.05;19.88;;;7.70;96.60;;;;;;4977459;28;20467;-79
2020/12/23 08:37:53;;;;;;;42.60;19.73;;;8.40;96.80;;;;;;4975611;28;20055;-78
2020/12/23 08:40:19;;;;;;;43.90;20.45;;;7.50;96.60;;;;;;4968876;28;20454;-75
2020/12/23 08:42:55;;;;;;;38.35;19.45;;;7.50;96.90;;;;;;4969432;28;20043;-78
2020/12/23 08:45:29;;;;;;;39.28;19.75;;;7.60;96.80;;;;;;4971718;28;20039;-77
2020/12/23 08:47:58;;;;;;;37.78;18.77;;;7.60;96.70;;;;;;4966937;28;20035;-79
2020/12/23 08:50:26;;;;;;;36.13;18.05;;;7.60;96.70;;;;;;4975126;28;20035;-81
2020/12/23 08:52:54;;;;;;;38.35;19.42;;;7.60;96.70;;;;;;4973992;28;20046;-81
2020/12/23 08:55:24;;;;;;;36.08;18.88;;;7.60;96.80;;;;;;4975059;28;20042;-81
2020/12/23 08:57:52;;;;;;;41.13;18.20;;;7.60;96.70;;;;;;4990787;28;20152;-81
2020/12/23 09:00:22;;;;;;;39.40;18.70;;;7.70;96.70;;;;;;4975241;28;20039;-79
2020/12/23 09:02:48;;;;;;;41.50;19.50;;;7.70;96.80;;;;;;4990193;28;20399;-79
2020/12/23 09:05:18;;;;;;;44.33;20.38;;;7.60;96.70;;;;;;4989586;28;20124;-80
2020/12/23 09:07:44;;;;;;;45.63;20.83;;;7.70;96.70;;;;;;4976327;28;22408;-82
2020/12/23 09:10:16;;;;;;;52.65;24.13;;;8.30;96.80;;;;;;4996634;28;20061;-79
2020/12/23 09:12:44;;;;;;;50.78;22.35;;;7.70;96.80;;;;;;4973716;28;20466;-80
2020/12/23 09:15:14;;;;;;;47.95;21.88;;;7.70;96.80;;;;;;4973810;28;20038;-79
2020/12/23 09:17:43;;;;;;;50.88;21.25;;;7.70;96.80;;;;;;4989676;28;20038;-79
2020/12/23 09:20:10;;;;;;;35.55;19.05;;;7.70;96.80;;;;;;4974667;28;20499;-78
2020/12/23 09:22:38;;;;;;;38.15;18.17;;;7.70;96.70;;;;;;4973903;28;20110;-79
2020/12/23 09:25:12;;;;;;;31.75;16.17;;;7.60;96.70;;;;;;4947039;28;20034;-80
2020/12/23 09:27:45;;;;;;;27.02;15.05;;;7.70;96.80;;;;;;4964938;28;20039;-80
2020/12/23 09:30:11;;;;;;;29.67;15.10;;;7.60;96.80;;;;;;4965648;28;20066;-77
2020/12/23 09:32:53;;;;;;;29.45;14.00;;;7.60;96.90;;;;;;4971590;28;20038;-77
2020/12/23 09:35:23;;;;;;;24.92;13.80;;;7.60;96.80;;;;;;4972674;28;20506;-80
2020/12/23 09:38:18;;;;;;;24.67;13.48;;;7.50;96.90;;;;;;4963551;28;20066;-79
2020/12/23 09:40:57;;;;;;;24.50;13.65;;;7.50;97.00;;;;;;4964823;28;20447;-79
2020/12/23 09:43:27;;;;;;;29.13;12.90;;;7.50;97.00;;;;;;4970504;28;20045;-83
2020/12/23 09:46:04;;;;;;;24.98;12.75;;;7.50;96.80;;;;;;4971020;28;20040;-82
2020/12/23 09:48:32;;;;;;;26.65;12.50;;;7.60;97.10;;;;;;4968760;28;20495;-85
2020/12/23 09:51:01;;;;;;;21.65;12.30;;;7.60;97.30;;;;;;4979084;28;20039;-84
2020/12/23 09:53:27;;;;;;;31.45;13.00;;;7.80;97.20;;;;;;4978140;28;20038;-80
2020/12/23 09:55:55;;;;;;;28.33;12.70;;;8.40;97.40;;;;;;4970246;28;20038;-79
2020/12/23 09:58:21;;;;;;;24.67;11.50;;;8.60;97.40;;;;;;4970583;28;20038;-79
2020/12/23 10:00:48;;;;;;;26.35;13.25;;;8.00;97.20;;;;;;4971904;28;20058;-83
2020/12/23 10:03:16;;;;;;;22.73;11.77;;;7.80;97.10;;;;;;4961887;28;20377;-79
2020/12/23 10:05:46;;;;;;;21.73;11.70;;;8.00;97.40;;;;;;4953021;28;20117;-80
2020/12/23 10:08:14;;;;;;;25.58;12.65;;;8.00;97.20;;;;;;4989005;28;20506;-79
2020/12/23 10:10:40;;;;;;;31.55;12.75;;;7.70;97.20;;;;;;4983946;28;20043;-79
2020/12/23 10:13:07;;;;;;;27.90;12.55;;;7.70;97.20;;;;;;4988341;28;20058;-82
2020/12/23 10:15:33;;;;;;;23.52;12.77;;;7.90;97.30;;;;;;4974178;28;20459;-83
2020/12/23 10:18:02;;;;;;;21.38;12.40;;;7.80;97.30;;;;;;4988942;28;20062;-84
2020/12/23 10:20:28;;;;;;;22.83;13.20;;;8.20;97.30;;;;;;4973071;28;20518;-85
2020/12/23 10:22:57;;;;;;;23.23;12.70;;;8.00;97.40;;;;;;4972905;28;20058;-84
2020/12/23 10:25:25;;;;;;;26.60;12.45;;;8.50;97.30;;;;;;4972905;28;20474;-83
2020/12/23 10:27:54;;;;;;;22.58;13.35;;;8.50;97.30;;;;;;4988815;28;20073;-83
2020/12/23 10:30:45;;;;;;;24.77;12.50;;;8.00;97.30;;;;;;4928692;28;20046;-85
2020/12/23 10:33:14;;;;;;;25.38;14.00;;;8.30;97.30;;;;;;4971389;28;20090;-85
2020/12/23 10:35:45;;;;;;;27.67;15.10;;;7.80;96.90;;;;;;4974167;28;20038;-84
2020/12/23 10:38:11;;;;;;;29.83;14.85;;;7.70;97.10;;;;;;4972736;28;20054;-78
2020/12/23 10:40:57;;;;;;;32.03;15.27;;;8.90;97.40;;;;;;4958898;28;20054;-78
2020/12/23 10:43:24;;;;;;;32.17;16.02;;;7.80;97.00;;;;;;4973026;28;20078;-80
2020/12/23 10:45:50;;;;;;;29.73;15.75;;;7.30;97.00;;;;;;4976619;28;20035;-78
2020/12/23 10:48:16;;;;;;;29.77;16.02;;;8.40;97.30;;;;;;4977632;28;20510;-78
2020/12/23 10:50:46;;;;;;;30.63;16.38;;;7.80;97.00;;;;;;4992504;28;20096;-77
2020/12/23 10:53:12;;;;;;;30.20;16.50;;;7.80;97.00;;;;;;4992468;28;20126;-79
2020/12/23 10:55:37;;;;;;;32.20;15.38;;;8.70;97.50;;;;;;4977429;28;20062;-79
2020/12/23 10:58:04;;;;;;;33.47;17.10;;;8.70;97.30;;;;;;4992553;28;20117;-79
2020/12/23 11:00:32;;;;;;;31.65;15.93;;;7.80;97.00;;;;;;4977469;28;20035;-79
2020/12/23 11:03:00;;;;;;;27.60;17.30;;;7.80;97.10;;;;;;4985856;28;20063;-79
2020/12/23 11:05:26;;;;;;;31.92;16.23;;;7.80;97.10;;;;;;4972156;28;20043;-79
2020/12/23 11:07:54;;;;;;;35.47;16.42;;;7.70;97.20;;;;;;4976014;28;20045;-79
2020/12/23 11:10:20;;;;;;;38.63;16.90;;;7.70;97.40;;;;;;4975978;28;20062;-79
2020/12/23 11:12:49;;;;;;;36.97;16.88;;;7.70;97.10;;;;;;4977590;28;20483;-80
2020/12/23 11:15:18;;;;;;;34.97;15.77;;;7.70;97.10;;;;;;4992038;28;20483;-77
2020/12/23 11:17:45;;;;;;;31.08;16.38;;;8.10;97.20;;;;;;4992226;28;20062;-77
2020/12/23 11:20:11;;;;;;;28.85;16.98;;;7.80;97.10;;;;;;4975053;28;20050;-77
2020/12/23 11:22:37;;;;;;;30.95;16.25;;;7.70;97.00;;;;;;4976514;28;20557;-78
2020/12/23 11:25:04;;;;;;;37.00;16.65;;;7.70;97.10;;;;;;4946390;28;20046;-78
2020/12/23 11:27:33;;;;;;;30.17;16.70;;;7.70;97.20;;;;;;4975802;28;20046;-78
2020/12/23 11:29:59;;;;;;;29.48;15.98;;;7.80;97.20;;;;;;4992100;28;20043;-78
2020/12/23 11:32:25;;;;;;;30.30;16.02;;;7.90;97.20;;;;;;4991949;28;20041;-78
2020/12/23 11:34:54;;;;;;;35.85;16.98;;;7.70;97.20;;;;;;4976957;28;20499;-79
2020/12/23 11:37:20;;;;;;;29.45;15.88;;;7.70;97.10;;;;;;4977029;28;20039;-79
2020/12/23 11:39:46;;;;;;;28.67;15.77;;;7.70;97.10;;;;;;4976666;28;20050;-79
2020/12/23 11:42:12;;;;;;;25.30;15.73;;;7.70;97.30;;;;;;4976944;28;20109;-78
2020/12/23 11:44:38;;;;;;;31.67;16.20;;;7.70;97.20;;;;;;4978434;28;20399;-82
2020/12/23 11:47:05;;;;;;;24.48;15.05;;;7.70;97.20;;;;;;4970189;28;20027;-79
2020/12/23 11:49:42;;;;;;;30.23;15.57;;;7.70;97.30;;;;;;4973586;28;20173;-80
2020/12/23 11:52:08;;;;;;;25.38;15.57;;;7.70;97.20;;;;;;4990696;28;20039;-80
2020/12/23 11:54:34;;;;;;;28.98;16.25;;;8.60;97.40;;;;;;4975251;28;20038;-77
2020/12/23 11:57:00;;;;;;;28.13;16.35;;;8.10;97.10;;;;;;4975136;28;20049;-81
2020/12/23 11:59:26;;;;;;;25.17;16.17;;;7.70;97.10;;;;;;4991739;28;20049;-78
2020/12/23 12:01:55;;;;;;;30.10;17.75;;;7.70;97.00;;;;;;4991298;28;20039;-78
2020/12/23 12:04:21;;;;;;;33.55;18.45;;;7.70;97.10;;;;;;4976475;28;20051;-78
2020/12/23 12:06:57;;;;;;;30.90;17.77;;;7.70;97.10;;;;;;4985648;28;20038;-78
2020/12/23 12:09:23;;;;;;;33.55;18.35;;;7.60;97.20;;;;;;4991821;28;20162;-79
2020/12/23 12:11:53;;;;;;;32.20;18.90;;;7.70;97.20;;;;;;4975607;28;20038;-79
2020/12/23 12:14:19;;;;;;;33.20;18.35;;;7.80;97.40;;;;;;4980281;28;20035;-80
2020/12/23 12:16:46;;;;;;;30.27;18.90;;;7.80;97.20;;;;;;4974472;28;20054;-76
2020/12/23 12:19:13;;;;;;;32.78;18.55;;;8.50;97.40;;;;;;4968550;28;20063;-74
2020/12/23 12:21:41;;;;;;;34.47;19.08;;;7.90;97.20;;;;;;4975762;28;20035;-79
2020/12/23 12:24:09;;;;;;;32.13;19.05;;;7.90;97.20;;;;;;4973214;28;20115;-77
2020/12/23 12:26:35;;;;;;;33.67;19.55;;;7.90;97.20;;;;;;4976083;28;20046;-77
2020/12/23 12:29:01;;;;;;;33.25;19.83;;;8.40;97.20;;;;;;4985953;28;20556;-76
2020/12/23 12:31:29;;;;;;;34.78;20.58;;;8.00;97.10;;;;;;4974975;28;20047;-75
2020/12/23 12:33:56;;;;;;;29.00;19.58;;;8.00;97.10;;;;;;4990816;28;20491;-75
2020/12/23 12:36:23;;;;;;;32.85;19.90;;;9.00;97.30;;;;;;4974270;28;20035;-76
2020/12/23 12:38:51;;;;;;;32.33;20.48;;;7.90;97.00;;;;;;4990698;28;20035;-77
2020/12/23 12:41:29;;;;;;;28.80;19.92;;;8.10;97.30;;;;;;4974166;28;20247;-75
2020/12/23 12:43:58;;;;;;;31.15;21.05;;;7.90;97.00;;;;;;4984711;28;20051;-78